Time;durP1;ratioP1;P1;durP2;ratioP2;P2;SDS_P1;SDS_P2;PMS_P1;PMS_P2;Temp;Humidity;BMP_temperature;BMP_pressure;BME280_temperature;BME280_humidity;BME280_pressure;Samples;Min_cycle;Max_cycle;Signal;HPM_P1;HPM_P2
2021/12/25 00:01:40;;;;;;;29.77;21.60;;;;;;;0.92;87.57;98197.11;1688712;83;21026;-69
2021/12/25 00:04:07;;;;;;;24.80;20.97;;;;;;;0.97;87.55;98194.27;1723606;82;21058;-68
2021/12/25 00:06:35;;;;;;;27.23;20.33;;;;;;;1.11;87.30;98186.11;1718770;81;21037;-70
2021/12/25 00:09:04;;;;;;;27.13;20.95;;;;;;;1.24;87.02;98174.95;1673982;84;21546;-67
2021/12/25 00:11:32;;;;;;;25.90;21.83;;;;;;;1.27;86.98;98169.35;1722113;82;21015;-70
2021/12/25 00:13:58;;;;;;;27.45;20.82;;;;;;;1.28;87.07;98181.49;1739431;82;21097;-69
2021/12/25 00:16:26;;;;;;;28.67;21.30;;;;;;;1.30;87.32;98172.94;1726110;82;21008;-69
2021/12/25 00:18:52;;;;;;;22.10;17.92;;;;;;;1.41;87.11;98159.83;1668272;84;21105;-69
2021/12/25 00:21:18;;;;;;;23.57;18.77;;;;;;;1.53;86.90;98162.31;1718591;82;21017;-70
2021/12/25 00:23:44;;;;;;;22.90;19.57;;;;;;;1.65;86.64;98169.22;1726918;80;21018;-70
2021/12/25 00:26:24;;;;;;;26.97;20.00;;;;;;;1.71;86.63;98151.91;1717502;82;21090;-70
2021/12/25 00:36:16;;;;;;;21.60;18.73;;;;;;;2.02;85.67;98164.78;1720485;82;21081;-68
2021/12/25 00:38:44;;;;;;;25.83;19.20;;;;;;;2.05;85.46;98165.70;1728108;82;21085;-69
2021/12/25 00:41:16;;;;;;;22.50;17.27;;;;;;;2.02;85.36;98162.66;1725826;82;21022;-68
2021/12/25 00:43:44;;;;;;;20.93;17.00;;;;;;;2.03;85.48;98168.21;1722233;82;21021;-69
2021/12/25 00:46:13;;;;;;;19.87;15.83;;;;;;;2.16;85.18;98159.14;1729362;81;21048;-68
2021/12/25 00:48:40;;;;;;;23.23;17.60;;;;;;;2.24;84.83;98152.47;1671690;84;21030;-68
2021/12/25 00:52:40;;;;;;;26.23;19.23;;;;;;;2.26;85.02;98152.25;1771671;78;21918;-67
2021/12/25 00:55:08;;;;;;;22.40;18.30;;;;;;;2.19;85.04;98157.97;1739416;80;21470;-66
2021/12/25 00:57:35;;;;;;;20.57;17.33;;;;;;;2.20;84.91;98147.25;1682416;83;21017;-66
2021/12/25 01:00:09;;;;;;;19.17;16.20;;;;;;;2.25;84.94;98156.70;1694109;83;21497;-67
2021/12/25 01:02:41;;;;;;;23.77;18.80;;;;;;;2.31;84.91;98156.45;1693407;83;21012;-69
2021/12/25 01:05:10;;;;;;;21.07;17.37;;;;;;;2.33;84.89;98157.88;1667906;83;21103;-69
2021/12/25 01:07:38;;;;;;;20.07;16.73;;;;;;;2.28;84.93;98141.05;1686103;83;21046;-70
2021/12/25 01:10:15;;;;;;;18.37;16.40;;;;;;;2.25;85.16;98136.98;1699262;83;21081;-69
2021/12/25 01:15:41;;;;;;;16.47;14.70;;;;;;;2.36;84.99;98158.02;1695569;83;21081;-68
2021/12/25 01:18:29;;;;;;;23.33;18.27;;;;;;;2.41;84.88;98142.98;1694348;83;21061;-68
2021/12/25 01:29:14;;;;;;;28.33;24.77;;;;;;;2.59;84.53;98141.22;1696463;83;21544;-70
2021/12/25 01:34:21;;;;;;;28.77;25.60;;;;;;;2.66;84.16;98146.03;1678817;83;21050;-70
2021/12/25 01:36:43;;;;;;;36.03;29.60;;;;;;;2.76;84.27;98140.42;1647420;84;21021;-70
2021/12/25 01:47:43;;;;;;;33.93;28.10;;;;;;;2.89;84.15;98138.69;1635985;84;21090;-71
2021/12/25 01:47:57;;;;;;;33.93;28.47;;;;;;;2.97;83.98;98146.93;1723589;81;21109;-70
2021/12/25 01:50:27;;;;;;;38.37;30.47;;;;;;;2.99;83.98;98156.76;1720363;81;21037;-69
2021/12/25 01:52:56;;;;;;;32.13;26.43;;;;;;;3.06;84.23;98148.41;1704046;82;21022;-71
2021/12/25 01:55:27;;;;;;;30.30;25.47;;;;;;;3.12;83.90;98142.88;1711583;81;21147;-70
2021/12/25 01:57:56;;;;;;;28.63;25.50;;;;;;;3.16;83.50;98151.20;1683099;83;21042;-70
2021/12/25 02:00:30;;;;;;;29.70;26.37;;;;;;;3.21;83.00;98155.38;1686298;81;21043;-70
2021/12/25 02:02:57;;;;;;;32.87;27.33;;;;;;;3.24;83.10;98154.97;1686114;83;21073;-71
2021/12/25 02:05:24;;;;;;;29.57;24.25;;;;;;;3.27;83.27;98166.45;1681256;83;21078;-72
2021/12/25 02:07:52;;;;;;;25.73;22.27;;;;;;;3.34;83.17;98173.08;1677715;83;21129;-70
2021/12/25 02:10:19;;;;;;;;;;;;;;;3.39;83.01;98169.34;1681887;83;20990;-70
2021/12/25 02:12:48;;;;;;;32.53;26.10;;;;;;;3.43;82.89;98170.59;1681136;81;20152;-70
2021/12/25 02:15:19;;;;;;;30.00;25.33;;;;;;;3.43;83.26;98180.61;1681321;83;21137;-70
2021/12/25 02:18:28;;;;;;;29.90;26.47;;;;;;;3.53;83.50;98182.08;1681957;83;21153;-70
2021/12/25 02:20:37;;;;;;;29.57;24.67;;;;;;;3.62;83.57;98179.08;1661563;83;21085;-70
2021/12/25 02:23:03;;;;;;;26.00;22.97;;;;;;;3.71;83.39;98183.66;1674027;82;21046;-71
2021/12/25 02:25:34;;;;;;;24.93;21.87;;;;;;;3.75;82.86;98178.33;1676936;83;21022;-70
2021/12/25 02:28:04;;;;;;;24.70;21.00;;;;;;;3.79;82.51;98180.06;1684699;85;21058;-70
2021/12/25 02:30:32;;;;;;;24.70;21.97;;;;;;;3.85;82.78;98179.27;1677839;83;21542;-71
2021/12/25 02:32:58;;;;;;;24.03;20.93;;;;;;;3.93;82.85;98182.22;1675907;83;21487;-71
2021/12/25 02:35:27;;;;;;;23.42;19.30;;;;;;;4.01;82.73;98176.28;1695385;83;21584;-70
2021/12/25 02:37:54;;;;;;;21.20;18.93;;;;;;;4.09;82.09;98183.19;1686156;83;21683;-72
2021/12/25 02:40:21;;;;;;;20.40;18.23;;;;;;;4.10;81.41;98173.73;1681313;83;21113;-71
2021/12/25 02:42:47;;;;;;;;;;;;;;;4.13;81.21;98177.82;1689790;83;21081;-71
2021/12/25 02:45:19;;;;;;;20.27;18.17;;;;;;;4.16;81.09;98186.63;1695451;83;20151;-69
2021/12/25 02:47:49;;;;;;;16.00;14.50;;;;;;;4.13;80.72;98196.79;1684351;83;21121;-70
2021/12/25 02:50:29;;;;;;;20.17;16.50;;;;;;;4.13;80.55;98197.59;1685003;83;21022;-70
2021/12/25 02:53:00;;;;;;;18.57;15.37;;;;;;;4.17;80.82;98207.23;1682575;83;21090;-69
2021/12/25 02:55:28;;;;;;;18.57;14.00;;;;;;;4.18;80.86;98216.27;1641765;85;20983;-69
2021/12/25 02:57:55;;;;;;;15.13;13.40;;;;;;;4.23;81.20;98218.30;1688024;83;20991;-69
2021/12/25 03:00:29;;;;;;;15.73;12.10;;;;;;;4.25;80.67;98229.46;1683308;83;21181;-70
2021/12/25 03:02:57;;;;;;;15.27;13.30;;;;;;;4.27;80.30;98229.56;1709185;82;21002;-68
2021/12/25 03:05:24;;;;;;;14.10;12.70;;;;;;;4.31;80.79;98223.38;1683777;83;21053;-68
2021/12/25 03:07:51;;;;;;;13.07;11.67;;;;;;;4.36;80.76;98216.20;1672494;83;21556;-70
2021/12/25 03:10:19;;;;;;;13.25;11.85;;;;;;;4.39;80.33;98220.58;1655489;85;21525;-71
2021/12/25 03:13:16;;;;;;;11.43;10.20;;;;;;;4.39;80.33;98215.30;1638617;81;21044;-71
2021/12/25 03:15:31;;;;;;;12.13;10.83;;;;;;;4.41;80.31;98224.34;1660668;85;21074;-70
2021/12/25 03:17:57;;;;;;;11.37;10.17;;;;;;;4.41;80.38;98215.91;1661559;85;21138;-71
2021/12/25 03:20:24;;;;;;;11.87;10.67;;;;;;;4.41;80.00;98240.16;1594256;87;21081;-71
2021/12/25 03:22:51;;;;;;;10.17;9.17;;;;;;;4.42;80.04;98246.53;1624251;84;21148;-69
2021/12/25 03:25:17;;;;;;;;;;;;;;;4.38;79.30;98255.86;1612580;88;21439;-71
2021/12/25 03:27:48;;;;;;;12.65;11.33;;;;;;;4.36;79.54;98254.45;1623440;86;20167;-69
2021/12/25 03:30:16;;;;;;;9.10;8.20;;;;;;;4.28;80.03;98260.20;1659074;85;21109;-71
2021/12/25 03:32:45;;;;;;;10.97;9.87;;;;;;;4.26;80.04;98259.59;1661988;85;21026;-70
2021/12/25 03:35:11;;;;;;;13.10;11.87;;;;;;;4.23;80.05;98264.45;1681283;83;20962;-71
2021/12/25 03:37:38;;;;;;;14.68;13.18;;;;;;;4.21;80.62;98271.75;1695040;83;21862;-70
2021/12/25 03:40:07;;;;;;;14.53;12.43;;;;;;;4.24;81.18;98287.99;1677764;83;21074;-70
2021/12/25 03:42:34;;;;;;;11.37;10.23;;;;;;;4.27;81.36;98292.85;1669200;83;20982;-70
2021/12/25 03:45:02;;;;;;;11.47;9.70;;;;;;;4.30;81.57;98308.81;1696393;83;21473;-72
2021/12/25 03:47:36;;;;;;;11.27;10.17;;;;;;;4.35;81.81;98324.86;1694110;83;21060;-70
2021/12/25 03:53:11;;;;;;;13.07;11.77;;;;;;;4.36;81.82;98330.43;1687075;83;21092;-71
2021/12/25 03:58:24;;;;;;;9.47;8.47;;;;;;;4.17;82.11;98356.22;1640445;86;21068;-71
2021/12/25 04:00:48;;;;;;;7.67;6.90;;;;;;;4.02;82.07;98353.70;1623809;84;21091;-70
2021/12/25 04:03:28;;;;;;;10.20;9.20;;;;;;;3.86;81.97;98351.70;1654401;84;22102;-71
2021/12/25 04:05:48;;;;;;;14.53;12.40;;;;;;;3.83;82.73;98357.86;1660687;84;21015;-69
2021/12/25 04:08:19;;;;;;;20.83;18.63;;;;;;;3.79;82.89;98365.34;1656192;84;21109;-70
2021/12/25 04:10:49;;;;;;;17.23;14.73;;;;;;;3.74;82.97;98378.78;1646067;84;21151;-71
2021/12/25 04:13:17;;;;;;;11.87;10.70;;;;;;;3.72;83.01;98384.23;1667976;84;21552;-71
2021/12/25 04:15:44;;;;;;;12.33;11.10;;;;;;;3.66;83.11;98392.91;1662365;84;21093;-71
2021/12/25 04:18:10;;;;;;;;;;;;;;;3.62;83.44;98391.16;1668760;84;22215;-71
2021/12/25 04:20:38;;;;;;;13.30;11.00;;;;;;;3.64;83.68;98401.00;1663567;83;20155;-69
2021/12/25 04:23:10;;;;;;;20.40;14.20;;;;;;;3.63;83.83;98411.22;1674481;84;21061;-70
2021/12/25 04:25:36;;;;;;;16.77;14.27;;;;;;;3.66;83.77;98411.36;1669101;84;21173;-69
2021/12/25 04:28:14;;;;;;;16.43;13.80;;;;;;;3.72;83.70;98422.44;1667572;84;21029;-68
2021/12/25 05:03:48;;;;;;;10.43;9.30;;;;;;;3.41;81.82;98536.03;1667972;83;21035;-70
2021/12/25 05:06:31;;;;;;;10.13;8.50;;;;;;;3.29;81.30;98542.29;1691121;83;21038;-70
2021/12/25 05:08:57;;;;;;;13.63;10.37;;;;;;;3.22;81.66;98546.66;1696502;83;21057;-63
2021/12/25 05:11:25;;;;;;;9.67;8.67;;;;;;;3.18;81.29;98544.09;1684914;82;21059;-63
2021/12/25 05:13:52;;;;;;;11.23;10.00;;;;;;;3.16;80.99;98550.84;1664134;84;21165;-64
2021/12/25 05:16:22;;;;;;;11.23;9.53;;;;;;;3.14;80.54;98562.06;1674702;84;21041;-64
2021/12/25 05:18:51;;;;;;;7.63;7.00;;;;;;;3.11;80.01;98567.21;1650197;85;21529;-63
2021/12/25 05:21:21;;;;;;;7.57;6.73;;;;;;;3.07;80.04;98572.53;1675226;84;21082;-63
2021/12/25 05:23:48;;;;;;;7.80;6.90;;;;;;;3.07;80.12;98572.53;1678316;84;20978;-64
2021/12/25 05:26:16;;;;;;;10.40;7.47;;;;;;;3.07;79.85;98579.59;1672212;84;21010;-64
2021/12/25 05:28:45;;;;;;;;;;;;;;;3.06;79.86;98577.46;1678492;84;21041;-63
2021/12/25 05:31:15;;;;;;;10.20;8.30;;;;;;;3.07;78.98;98592.75;1675387;84;20109;-67
2021/12/25 05:33:56;;;;;;;10.17;6.80;;;;;;;2.99;79.37;98598.13;1655347;84;21152;-63
2021/12/25 05:36:41;;;;;;;8.20;7.40;;;;;;;2.98;79.30;98609.16;1643858;86;21057;-63
2021/12/25 05:39:15;;;;;;;7.47;6.77;;;;;;;2.97;78.18;98618.55;1633174;86;21078;-64
2021/12/25 05:41:45;;;;;;;6.37;5.70;;;;;;;2.94;78.13;98618.42;1645866;86;21058;-64
2021/12/25 05:44:13;;;;;;;6.63;5.97;;;;;;;2.94;78.41;98619.73;1648268;85;21037;-64
2021/12/25 05:46:41;;;;;;;9.23;7.33;;;;;;;2.96;78.02;98632.69;1695065;83;21006;-63
2021/12/25 05:49:07;;;;;;;10.53;9.43;;;;;;;2.94;77.88;98638.16;1673266;83;21546;-64
2021/12/25 05:51:35;;;;;;;9.27;8.37;;;;;;;2.91;77.56;98635.88;1671810;83;21065;-65
2021/12/25 05:54:03;;;;;;;7.80;6.97;;;;;;;2.85;77.95;98649.77;1691651;83;20954;-66
2021/12/25 05:56:33;;;;;;;7.00;6.30;;;;;;;2.79;78.59;98652.61;1651728;83;21374;-65
2021/12/25 05:59:13;;;;;;;7.93;6.27;;;;;;;2.74;78.93;98660.22;1691915;83;20995;-66
2021/12/25 06:01:47;;;;;;;9.33;8.43;;;;;;;2.69;78.93;98669.14;1675847;84;21497;-66
2021/12/25 06:04:15;;;;;;;10.10;7.53;;;;;;;2.62;78.25;98659.00;1667934;85;21059;-66
2021/12/25 06:06:41;;;;;;;7.03;6.33;;;;;;;2.56;78.90;98675.00;1666658;85;21563;-67
2021/12/25 06:09:08;;;;;;;8.08;7.25;;;;;;;2.53;78.94;98684.58;1666313;85;21133;-68
2021/12/25 06:11:37;;;;;;;7.60;6.83;;;;;;;2.53;79.22;98703.80;1665882;85;21039;-68
2021/12/25 06:14:17;;;;;;;8.43;7.50;;;;;;;2.53;78.75;98701.17;1670211;85;21003;-64
2021/12/25 06:16:40;;;;;;;10.60;9.48;;;;;;;2.51;78.33;98720.25;1654773;85;21674;-64
2021/12/25 06:19:08;;;;;;;13.07;11.10;;;;;;;2.48;78.30;98713.21;1670468;85;21076;-63
2021/12/25 06:21:38;;;;;;;9.90;8.07;;;;;;;2.49;78.73;98724.88;1662735;85;21016;-64
2021/12/25 06:24:14;;;;;;;10.30;8.30;;;;;;;2.52;78.30;98731.11;1657014;85;21055;-64
2021/12/25 06:26:43;;;;;;;9.80;7.17;;;;;;;2.55;78.41;98741.77;1662518;85;21603;-64
2021/12/25 06:29:27;;;;;;;8.67;7.23;;;;;;;2.56;78.15;98749.96;1666692;85;21095;-64
2021/12/25 06:31:58;;;;;;;8.50;7.43;;;;;;;2.53;77.26;98757.72;1661561;85;21088;-62
2021/12/25 06:34:45;;;;;;;10.60;8.23;;;;;;;2.48;76.38;98752.66;1668869;85;21029;-62
2021/12/25 06:37:14;;;;;;;6.77;6.07;;;;;;;2.39;76.59;98778.19;1672260;84;21112;-71
2021/12/25 06:39:59;;;;;;;7.67;6.73;;;;;;;2.35;75.58;98783.47;1663876;85;21592;-74
2021/12/25 06:42:30;;;;;;;7.83;7.03;;;;;;;2.32;76.51;98787.78;1667688;85;21103;-75
2021/12/25 06:44:56;;;;;;;7.85;6.83;;;;;;;2.33;76.50;98802.55;1666314;82;21043;-71
2021/12/25 06:47:22;;;;;;;8.78;7.87;;;;;;;2.34;75.69;98802.89;1666050;85;21032;-74
2021/12/25 06:49:50;;;;;;;6.93;6.33;;;;;;;2.32;75.26;98812.77;1671691;85;21035;-77
2021/12/25 06:52:19;;;;;;;7.13;6.50;;;;;;;2.35;75.58;98815.02;1656849;85;21071;-75
2021/12/25 06:55:06;;;;;;;9.63;7.50;;;;;;;2.41;75.49;98818.78;1658002;85;21027;-76
2021/12/25 06:57:44;;;;;;;8.63;7.73;;;;;;;2.47;75.26;98833.38;1673502;83;21095;-75
2021/12/25 07:00:07;;;;;;;8.53;7.70;;;;;;;2.53;75.21;98840.57;1682105;83;21095;-76
2021/12/25 07:02:35;;;;;;;10.73;7.60;;;;;;;2.60;75.04;98845.13;1691840;83;21043;-75
2021/12/25 07:05:19;;;;;;;8.37;7.30;;;;;;;2.65;75.02;98853.33;1676123;83;21064;-75
2021/12/25 07:07:52;;;;;;;12.00;9.10;;;;;;;2.65;75.17;98856.77;1634995;83;21111;-74
2021/12/25 07:10:29;;;;;;;7.77;6.90;;;;;;;2.62;75.69;98858.45;1683581;83;21068;-75
2021/12/25 07:12:57;;;;;;;8.23;6.83;;;;;;;2.56;76.11;98867.02;1699834;83;21016;-76
2021/12/25 07:15:33;;;;;;;8.57;7.70;;;;;;;2.50;76.65;98863.27;1691328;83;21107;-77
2021/12/25 07:18:10;;;;;;;;;;;;;;;2.46;77.25;98865.11;1688524;83;22289;-75
2021/12/25 07:20:48;;;;;;;10.37;8.50;;;;;;;2.43;77.55;98879.44;1684279;83;20136;-77
2021/12/25 07:23:17;;;;;;;8.07;7.27;;;;;;;2.34;77.41;98881.77;1678575;83;21042;-76
2021/12/25 07:25:48;;;;;;;9.53;7.90;;;;;;;2.31;77.47;98886.86;1690601;83;21539;-76
2021/12/25 07:28:28;;;;;;;12.10;9.40;;;;;;;2.30;77.39;98896.26;1628457;86;21371;-76
2021/12/25 07:30:58;;;;;;;9.87;7.87;;;;;;;2.29;77.33;98896.73;1684986;83;21063;-76
2021/12/25 07:33:24;;;;;;;10.43;7.60;;;;;;;2.29;76.02;98906.44;1690736;83;21899;-75
2021/12/25 07:35:50;;;;;;;9.88;8.23;;;;;;;2.28;75.74;98917.92;1687373;83;21060;-76
2021/12/25 07:38:18;;;;;;;9.43;7.40;;;;;;;2.30;75.37;98929.13;1690216;83;21587;-76
2021/12/25 07:40:45;;;;;;;10.17;8.47;;;;;;;2.32;75.42;98928.45;1692017;83;21098;-75
2021/12/25 07:43:13;;;;;;;9.70;8.67;;;;;;;2.36;74.91;98928.94;1694111;83;21067;-77
2021/12/25 07:46:00;;;;;;;10.70;6.65;;;;;;;2.39;74.74;98957.00;1633680;86;21061;-75
2021/12/25 07:48:27;;;;;;;10.13;7.67;;;;;;;2.33;71.44;98945.86;1640182;86;21042;-76
2021/12/25 07:50:54;;;;;;;10.17;8.60;;;;;;;2.26;73.26;98962.81;1650513;83;21097;-77
2021/12/25 07:53:21;;;;;;;9.33;7.93;;;;;;;2.25;73.38;98976.12;1688661;83;21115;-75
2021/12/25 07:55:48;;;;;;;11.60;10.05;;;;;;;2.28;73.19;98982.34;1694301;83;21087;-75
2021/12/25 07:58:17;;;;;;;8.03;7.23;;;;;;;2.31;72.59;98991.22;1689880;83;21036;-76
2021/12/25 08:00:44;;;;;;;10.93;8.90;;;;;;;2.33;72.02;98987.93;1688197;83;21099;-76
2021/12/25 08:03:12;;;;;;;9.67;7.63;;;;;;;2.30;72.00;99003.56;1694378;83;21163;-77
2021/12/25 08:05:40;;;;;;;11.20;8.40;;;;;;;2.33;71.51;99016.85;1691716;83;22324;-76
2021/12/25 08:08:07;;;;;;;11.78;8.60;;;;;;;2.32;71.45;99012.09;1687870;83;21015;-78
2021/12/25 08:10:34;;;;;;;11.43;9.03;;;;;;;2.32;71.33;99017.36;1689575;83;21491;-78
2021/12/25 08:13:00;;;;;;;11.35;9.40;;;;;;;2.34;70.62;99019.32;1693794;83;21091;-77
2021/12/25 08:15:29;;;;;;;10.63;8.03;;;;;;;2.37;71.34;99026.55;1694321;83;21062;-76
2021/12/25 08:18:00;;;;;;;12.60;9.67;;;;;;;2.40;71.03;99015.20;1669181;83;21159;-76
2021/12/25 08:20:32;;;;;;;12.50;9.57;;;;;;;2.43;70.50;99025.87;1694408;83;21172;-75
2021/12/25 08:23:20;;;;;;;10.83;9.43;;;;;;;2.44;70.36;99024.39;1691524;83;21015;-77
2021/12/25 08:26:06;;;;;;;12.63;10.13;;;;;;;2.51;69.10;99024.05;1688915;83;21115;-76
2021/12/25 08:28:48;;;;;;;12.03;9.40;;;;;;;2.56;69.12;99023.53;1688597;83;21071;-76
2021/12/25 08:31:33;;;;;;;12.27;10.20;;;;;;;2.59;68.25;99033.73;1689984;83;21075;-76
2021/12/25 08:34:19;;;;;;;14.47;10.40;;;;;;;2.11;67.29;98958.74;1632451;85;21065;-76
2021/12/25 08:36:57;;;;;;;14.83;10.27;;;;;;;2.49;67.73;99042.31;1632421;86;21541;-75
2021/12/25 08:39:24;;;;;;;15.08;9.15;;;;;;;2.49;68.51;99049.70;1659126;83;21061;-75
2021/12/25 08:41:50;;;;;;;;;;;;;;;2.56;68.23;99058.23;1699138;83;21202;-78
2021/12/25 08:44:32;;;;;;;16.87;11.27;;;;;;;2.65;68.43;99057.23;1667008;83;20107;-76
2021/12/25 08:46:59;;;;;;;13.53;9.70;;;;;;;2.70;68.25;99064.13;1660259;83;21078;-78
2021/12/25 08:49:28;;;;;;;10.65;8.60;;;;;;;2.74;66.42;99065.42;1687568;83;21111;-78
2021/12/25 08:51:58;;;;;;;10.57;8.20;;;;;;;2.73;65.79;99066.41;1688901;83;21048;-79
2021/12/25 08:54:24;;;;;;;13.97;8.73;;;;;;;2.73;66.21;99067.72;1691800;83;21047;-78
2021/12/25 08:56:50;;;;;;;11.10;8.83;;;;;;;2.70;64.18;99075.97;1692018;83;21527;-76
2021/12/25 08:59:16;;;;;;;10.32;7.55;;;;;;;2.62;65.70;99070.70;1691002;83;21028;-77
2021/12/25 09:01:43;;;;;;;10.00;7.90;;;;;;;2.55;64.57;99076.34;1685065;83;21248;-75
2021/12/25 09:04:09;;;;;;;9.75;8.45;;;;;;;2.48;65.14;99083.55;1680922;83;21075;-76
2021/12/25 09:06:37;;;;;;;11.75;8.85;;;;;;;2.46;65.88;99086.84;1681078;83;20992;-76
2021/12/25 09:09:05;;;;;;;8.83;7.77;;;;;;;2.50;65.97;99097.86;1676830;83;21061;-75
2021/12/25 09:11:33;;;;;;;11.57;8.10;;;;;;;2.55;66.28;99101.33;1691647;83;21317;-77
2021/12/25 09:14:01;;;;;;;9.40;7.10;;;;;;;2.55;66.85;99099.51;1688796;83;21016;-77
2021/12/25 09:16:27;;;;;;;9.63;7.62;;;;;;;2.56;66.34;99105.08;1688328;83;21016;-76
2021/12/25 09:18:53;;;;;;;8.03;5.55;;;;;;;2.53;67.29;99102.80;1687418;83;21115;-76
2021/12/25 09:21:19;;;;;;;6.22;5.03;;;;;;;2.40;66.54;99095.41;1693108;83;21586;-75
2021/12/25 09:23:46;;;;;;;6.30;4.25;;;;;;;2.29;67.46;99089.17;1691852;83;21016;-79
2021/12/25 09:26:14;;;;;;;5.20;4.33;;;;;;;2.20;66.68;99100.18;1689886;83;21118;-75
2021/12/25 09:28:41;;;;;;;6.50;5.23;;;;;;;2.13;66.59;99117.12;1687788;83;21637;-75
2021/12/25 09:31:07;;;;;;;6.05;4.78;;;;;;;2.12;67.21;99114.65;1686760;83;21067;-76
2021/12/25 09:33:33;;;;;;;6.78;3.98;;;;;;;2.12;66.71;99118.59;1692293;83;21599;-77
2021/12/25 09:36:02;;;;;;;4.50;3.58;;;;;;;2.06;66.20;99124.01;1685877;83;20987;-75
2021/12/25 09:38:31;;;;;;;4.37;3.97;;;;;;;1.98;66.15;99130.58;1674638;83;21648;-75
2021/12/25 09:40:59;;;;;;;4.83;3.87;;;;;;;1.96;66.73;99140.44;1675028;83;21114;-77
2021/12/25 09:43:27;;;;;;;5.70;5.03;;;;;;;1.97;66.77;99142.06;1672694;83;21087;-78
2021/12/25 09:45:55;;;;;;;6.40;4.10;;;;;;;2.03;67.21;99147.16;1644525;85;21018;-74
2021/12/25 09:48:21;;;;;;;5.83;4.30;;;;;;;2.11;67.08;99151.11;1636229;86;21105;-75
2021/12/25 09:50:48;;;;;;;5.20;4.62;;;;;;;2.16;66.60;99156.70;1638129;86;21359;-77
2021/12/25 09:53:18;;;;;;;5.50;4.23;;;;;;;2.19;66.09;99152.95;1639310;86;21028;-76
2021/12/25 09:55:46;;;;;;;4.00;3.67;;;;;;;2.23;65.70;99155.58;1646058;86;21129;-76
2021/12/25 09:58:13;;;;;;;4.17;2.77;;;;;;;2.26;64.41;99155.23;1632164;86;21928;-73
2021/12/25 10:00:43;;;;;;;4.30;2.87;;;;;;;2.23;61.93;99151.13;1637604;86;21117;-65
2021/12/25 10:03:09;;;;;;;3.67;2.40;;;;;;;2.17;60.73;99150.95;1630546;86;21104;-74
2021/12/25 10:05:43;;;;;;;3.22;2.40;;;;;;;2.06;60.44;99158.18;1632526;86;21066;-76
2021/12/25 10:08:20;;;;;;;3.30;2.50;;;;;;;2.04;59.42;99154.89;1638102;86;21176;-72
2021/12/25 10:10:55;;;;;;;2.90;2.50;;;;;;;1.97;58.31;99153.89;1642149;86;21063;-77
2021/12/25 10:13:40;;;;;;;3.77;3.17;;;;;;;1.84;59.34;99158.30;1639920;86;21124;-77
2021/12/25 10:16:30;;;;;;;3.60;3.07;;;;;;;1.77;59.66;99153.84;1645208;86;21045;-76
2021/12/25 10:19:15;;;;;;;2.83;2.53;;;;;;;1.72;59.98;99157.78;1631390;86;21152;-76
2021/12/25 10:21:41;;;;;;;2.27;2.07;;;;;;;1.63;58.63;99162.68;1633108;86;21031;-75
2021/12/25 10:24:25;;;;;;;2.62;2.12;;;;;;;1.55;58.51;99170.05;1629861;86;21034;-78
2021/12/25 10:26:48;;;;;;;3.60;3.10;;;;;;;1.43;57.54;99171.80;1632211;86;21480;-75
2021/12/25 10:29:21;;;;;;;3.73;2.50;;;;;;;1.33;58.85;99172.73;1643508;86;20991;-76
2021/12/25 10:31:52;;;;;;;4.70;2.47;;;;;;;1.41;57.02;99175.07;1643535;86;21455;-74
2021/12/25 10:34:23;;;;;;;2.80;2.10;;;;;;;1.46;57.42;99174.12;1658047;83;21616;-74
2021/12/25 10:36:50;;;;;;;3.87;1.60;;;;;;;1.47;58.13;99182.31;1624635;86;21088;-75
2021/12/25 10:39:27;;;;;;;2.33;2.07;;;;;;;1.41;56.32;99179.02;1628758;86;21126;-73
2021/12/25 10:42:06;;;;;;;2.15;1.45;;;;;;;1.29;56.30;99180.60;1622626;86;21145;-73
2021/12/25 10:44:37;;;;;;;2.70;1.67;;;;;;;1.33;54.78;99187.67;1643587;86;21010;-74
2021/12/25 10:47:18;;;;;;;3.23;2.03;;;;;;;1.40;54.36;99188.70;1631429;86;21014;-73
2021/12/25 10:50:10;;;;;;;1.10;1.00;;;;;;;1.49;53.89;99193.51;1627132;86;21031;-74
2021/12/25 10:52:43;;;;;;;4.63;1.67;;;;;;;1.55;53.76;99200.25;1632067;86;21046;-76
2021/12/25 10:55:23;;;;;;;1.80;1.70;;;;;;;1.62;54.24;99199.61;1640114;86;21574;-74
2021/12/25 10:57:56;;;;;;;3.77;3.23;;;;;;;1.68;52.91;99198.50;1634889;86;21558;-77
2021/12/25 11:00:28;;;;;;;2.90;2.30;;;;;;;1.66;50.73;99200.97;1629600;86;21113;-76
2021/12/25 11:03:05;;;;;;;3.23;2.30;;;;;;;1.54;50.69;99197.77;1630419;86;21023;-77
2021/12/25 11:05:39;;;;;;;3.17;1.87;;;;;;;1.51;51.79;99199.42;1600075;88;21107;-77
2021/12/25 11:08:22;;;;;;;3.00;1.43;;;;;;;1.42;51.39;99199.05;1606802;88;21019;-77
2021/12/25 11:11:08;;;;;;;4.80;3.23;;;;;;;1.23;50.06;99202.23;1582205;89;21089;-77
2021/12/25 11:13:43;;;;;;;2.53;1.80;;;;;;;1.07;50.76;99214.76;1576849;89;21105;-74
2021/12/25 11:16:28;;;;;;;3.33;2.40;;;;;;;0.96;51.78;99213.23;1597158;88;21088;-75
2021/12/25 11:19:12;;;;;;;2.57;1.80;;;;;;;0.91;52.96;99223.86;1598554;88;21050;-77
2021/12/25 11:21:49;;;;;;;4.50;2.33;;;;;;;0.88;50.54;99228.91;1601561;88;21070;-77
2021/12/25 11:24:20;;;;;;;1.95;1.67;;;;;;;0.90;51.02;99239.25;1646217;85;21064;-76
2021/12/25 11:26:54;;;;;;;3.53;2.03;;;;;;;0.82;50.79;99248.38;1620894;86;21101;-76
2021/12/25 11:29:25;;;;;;;4.97;3.50;;;;;;;0.78;52.23;99245.23;1626590;86;21065;-76
2021/12/25 11:31:54;;;;;;;6.97;2.77;;;;;;;0.77;52.06;99241.80;1628878;86;21097;-78
2021/12/25 11:34:21;;;;;;;3.60;2.63;;;;;;;0.84;51.81;99256.42;1636462;86;21082;-74
2021/12/25 11:36:52;;;;;;;5.93;4.43;;;;;;;0.85;51.78;99255.93;1646113;86;21122;-75
2021/12/25 11:39:20;;;;;;;5.40;4.17;;;;;;;0.86;51.77;99257.09;1659284;85;21072;-75
2021/12/25 11:41:50;;;;;;;4.20;2.90;;;;;;;0.85;51.83;99267.27;1637597;86;21125;-74
2021/12/25 11:44:48;;;;;;;4.50;2.80;;;;;;;0.88;50.20;99274.81;1638599;86;21050;-74
2021/12/25 11:47:45;;;;;;;2.73;2.40;;;;;;;0.88;49.60;99276.13;1658904;85;21530;-74
2021/12/25 11:50:39;;;;;;;4.92;3.00;;;;;;;0.87;50.42;99279.75;1632157;86;21029;-76
2021/12/25 11:53:27;;;;;;;5.97;3.00;;;;;;;0.81;49.94;99277.73;1640238;85;21050;-77
2021/12/25 11:58:55;;;;;;;5.60;3.98;;;;;;;0.56;51.20;99292.41;1641539;86;21197;-74
2021/12/25 12:01:29;;;;;;;4.07;3.13;;;;;;;0.51;49.45;99305.98;1662739;85;21043;-75
2021/12/25 12:04:04;;;;;;;7.40;3.40;;;;;;;0.44;50.95;99300.99;1638851;86;21574;-76
2021/12/25 12:06:56;;;;;;;5.10;4.13;;;;;;;0.45;50.78;99301.81;1647081;85;21675;-75
2021/12/25 12:09:56;;;;;;;5.80;3.87;;;;;;;0.45;52.10;99310.48;1633397;86;22305;-74
2021/12/25 12:12:28;;;;;;;6.27;4.20;;;;;;;0.48;53.01;99318.07;1638987;86;20995;-73
2021/12/25 12:15:14;;;;;;;6.47;4.33;;;;;;;0.53;54.00;99318.46;1618946;86;21030;-74
2021/12/25 12:18:19;;;;;;;11.40;4.67;;;;;;;0.62;54.73;99319.34;1647870;85;20955;-76
2021/12/25 12:20:45;;;;;;;5.60;4.47;;;;;;;0.67;54.30;99338.59;1636495;86;20999;-72
2021/12/25 12:23:47;;;;;;;4.75;3.92;;;;;;;0.72;53.78;99342.91;1635134;86;21956;-73
2021/12/25 12:26:09;;;;;;;4.93;3.37;;;;;;;0.74;54.15;99345.70;1632570;86;21123;-73
2021/12/25 12:28:47;;;;;;;5.63;3.47;;;;;;;0.77;53.91;99330.98;1634641;86;20990;-73
2021/12/25 12:31:44;;;;;;;4.50;3.10;;;;;;;0.82;53.96;99329.70;1644145;85;21129;-74
2021/12/25 12:34:37;;;;;;;2.07;1.63;;;;;;;0.81;53.27;99331.98;1576126;87;21038;-77
2021/12/25 12:37:21;;;;;;;3.90;3.03;;;;;;;0.77;52.19;99341.95;1616183;86;21024;-76
2021/12/25 12:40:04;;;;;;;4.30;2.93;;;;;;;0.71;53.04;99349.92;1623316;86;21046;-76
2021/12/25 12:42:52;;;;;;;3.10;2.63;;;;;;;0.67;53.00;99350.39;1619909;86;21080;-75
2021/12/25 12:45:26;;;;;;;3.50;2.07;;;;;;;0.62;52.94;99367.05;1633879;86;21121;-76
2021/12/25 12:48:15;;;;;;;3.33;1.83;;;;;;;0.66;53.11;99371.02;1632305;86;21149;-75
2021/12/25 12:50:46;;;;;;;3.17;2.83;;;;;;;0.70;51.26;99368.45;1637186;86;21548;-81
2021/12/25 12:53:13;;;;;;;2.20;1.10;;;;;;;0.66;51.38;99368.39;1641307;86;21121;-69
2021/12/25 12:55:42;;;;;;;1.82;1.37;;;;;;;0.63;50.11;99387.07;1641553;86;21034;-69
2021/12/25 12:58:25;;;;;;;1.70;1.17;;;;;;;0.56;50.41;99393.38;1656742;86;21052;-77
2021/12/25 13:00:56;;;;;;;1.03;0.90;;;;;;;0.58;49.59;99394.05;1626850;86;21104;-76
2021/12/25 13:03:27;;;;;;;3.40;1.73;;;;;;;0.61;49.20;99396.39;1623661;86;21053;-76
2021/12/25 13:08:47;;;;;;;3.10;2.27;;;;;;;0.53;49.17;99408.92;1791719;77;21976;-75
2021/12/25 13:11:25;;;;;;;4.70;3.07;;;;;;;0.42;49.36;99409.13;1786449;78;21009;-74
2021/12/25 13:13:53;;;;;;;6.33;4.10;;;;;;;0.42;49.37;99409.62;1702921;83;21046;-74